createdAt,value
2023-02-24T00:02:06.003Z,99691.81
2023-02-24T00:04:38.624Z,99704.41
2023-02-24T00:07:06.679Z,99701.56
2023-02-24T00:09:34.246Z,99693.19
2023-02-24T00:12:02.899Z,99692.97
2023-02-24T00:14:31.828Z,99690.44
2023-02-24T00:16:59.361Z,99689.59
2023-02-24T00:19:27.950Z,99691.84
2023-02-24T00:21:55.403Z,99689.69
2023-02-24T00:24:26.147Z,99683.59
2023-02-24T00:26:57.118Z,99680.78
2023-02-24T00:29:25.256Z,99685.12
2023-02-24T00:32:00.138Z,99678.28
2023-02-24T00:34:28.931Z,99677.31
2023-02-24T00:36:56.976Z,99673.47
2023-02-24T00:39:28.600Z,99675.63
2023-02-24T00:42:04.665Z,99657.66
2023-02-24T00:44:35.627Z,99659.53
2023-02-24T00:47:04.958Z,99661.94
2023-02-24T00:49:34.067Z,99651.16
2023-02-24T00:52:01.302Z,99653.00
2023-02-24T00:54:28.856Z,99647.88
2023-02-24T00:56:56.331Z,99642.56
2023-02-24T00:59:26.221Z,99640.41
2023-02-24T01:01:54.964Z,99638.91
2023-02-24T01:04:22.652Z,99630.56
2023-02-24T01:06:52.538Z,99633.03
2023-02-24T01:09:20.661Z,99636.00
2023-02-24T01:12:07.944Z,99626.69
2023-02-24T01:14:35.700Z,99622.78
2023-02-24T01:17:04.061Z,99628.50
2023-02-24T01:19:32.186Z,99619.72
2023-02-24T01:22:01.211Z,99617.12
2023-02-24T01:24:28.994Z,99610.91
2023-02-24T01:26:57.215Z,99605.78
2023-02-24T01:29:27.851Z,99603.50
2023-02-24T01:31:58.526Z,99595.53
2023-02-24T01:34:26.927Z,99591.13
2023-02-24T01:36:54.208Z,99587.19
2023-02-24T01:39:21.901Z,99586.09
2023-02-24T01:41:50.350Z,99575.72
2023-02-24T01:44:18.176Z,99582.25
2023-02-24T01:46:46.257Z,99574.87
2023-02-24T01:49:15.867Z,99568.28
2023-02-24T01:51:49.624Z,99571.28
2023-02-24T01:54:17.626Z,99569.94
2023-02-24T01:56:46.996Z,99572.03
2023-02-24T01:59:16.059Z,99562.50
2023-02-24T02:01:43.662Z,99561.25
2023-02-24T02:04:14.316Z,99562.31
2023-02-24T02:06:41.665Z,99547.44
2023-02-24T02:09:09.871Z,99544.06
2023-02-24T02:11:37.498Z,99539.34
2023-02-24T02:14:05.718Z,99544.41
2023-02-24T02:16:36.172Z,99546.78
2023-02-24T02:19:22.829Z,99541.78
2023-02-24T02:22:09.002Z,99539.88
2023-02-24T02:24:56.442Z,99530.97
2023-02-24T02:27:29.422Z,99529.91
2023-02-24T02:30:02.006Z,99534.47
2023-02-24T02:32:41.549Z,99532.66
2023-02-24T02:35:20.976Z,99526.94
2023-02-24T02:37:59.148Z,99532.50
2023-02-24T02:40:27.788Z,99527.06
2023-02-24T02:42:57.856Z,99533.00
2023-02-24T02:45:29.169Z,99518.50
2023-02-24T02:48:04.507Z,99519.56
2023-02-24T02:50:46.214Z,99520.09
2023-02-24T02:53:14.863Z,99518.38
2023-02-24T02:55:43.905Z,99504.06
2023-02-24T02:58:14.873Z,99509.41
2023-02-24T03:00:54.285Z,99511.16
2023-02-24T03:03:26.230Z,99506.00
2023-02-24T03:05:57.495Z,99509.97
2023-02-24T03:08:25.944Z,99496.19
2023-02-24T03:10:53.706Z,99494.16
2023-02-24T03:13:22.405Z,99495.12
2023-02-24T03:15:50.526Z,99509.72
2023-02-24T03:18:20.242Z,99493.28
2023-02-24T03:20:51.739Z,99494.56
2023-02-24T03:23:20.476Z,99484.00
2023-02-24T03:25:49.386Z,99482.50
2023-02-24T03:28:22.768Z,99479.00
2023-02-24T03:30:57.987Z,99481.28
2023-02-24T03:33:29.795Z,99490.28
2023-02-24T03:36:01.710Z,99490.94
2023-02-24T03:38:30.604Z,99491.63
2023-02-24T03:40:59.423Z,99492.22
2023-02-24T03:43:28.456Z,99485.03
2023-02-24T03:45:56.142Z,99476.56
2023-02-24T03:48:24.979Z,99477.22
2023-02-24T03:50:53.283Z,99479.72
2023-02-24T03:53:39.965Z,99475.81
2023-02-24T03:56:13.294Z,99485.00
2023-02-24T03:58:53.951Z,99472.53
2023-02-24T04:01:31.017Z,99473.78
2023-02-24T04:04:00.664Z,99462.88
2023-02-24T04:06:36.573Z,99463.16
2023-02-24T04:09:07.220Z,99452.34
2023-02-24T04:11:39.223Z,99445.84
2023-02-24T04:14:08.629Z,99437.59
2023-02-24T04:16:44.459Z,99437.50
2023-02-24T04:19:14.191Z,99429.06
2023-02-24T04:21:43.137Z,99426.16
2023-02-24T04:24:15.292Z,99426.25
2023-02-24T04:26:44.783Z,99423.16
2023-02-24T04:29:17.539Z,99425.94
2023-02-24T04:31:46.411Z,99406.59
2023-02-24T04:34:20.005Z,99418.97
2023-02-24T04:36:49.849Z,99416.84
2023-02-24T04:39:20.964Z,99410.22
2023-02-24T04:41:49.849Z,99403.94
2023-02-24T04:44:21.142Z,99401.78
2023-02-24T04:46:51.908Z,99410.81
2023-02-24T04:49:19.289Z,99398.00
2023-02-24T04:51:46.525Z,99391.94
2023-02-24T04:54:17.463Z,99394.81
2023-02-24T04:56:47.952Z,99392.97
2023-02-24T04:59:15.559Z,99397.22
2023-02-24T05:01:44.223Z,99402.66
2023-02-24T05:04:12.364Z,99395.09
2023-02-24T05:06:43.791Z,99381.28
2023-02-24T05:09:14.496Z,99384.00
2023-02-24T05:11:42.586Z,99378.31
2023-02-24T05:14:10.656Z,99376.22
2023-02-24T05:16:37.978Z,99373.56
2023-02-24T05:19:24.301Z,99380.56
2023-02-24T05:21:51.672Z,99370.59
2023-02-24T05:24:19.370Z,99365.91
2023-02-24T05:26:46.800Z,99373.47
2023-02-24T05:29:14.270Z,99374.03
2023-02-24T05:31:41.918Z,99382.03
2023-02-24T05:34:09.330Z,99382.94
2023-02-24T05:36:40.337Z,99376.03
2023-02-24T05:39:12.060Z,99376.69
2023-02-24T05:41:41.730Z,99378.59
2023-02-24T05:44:11.710Z,99370.81
2023-02-24T05:46:44.618Z,99369.75
2023-02-24T05:49:14.348Z,99369.97
2023-02-24T05:51:43.563Z,99364.34
2023-02-24T05:54:13.146Z,99363.69
2023-02-24T05:56:43.874Z,99362.78
2023-02-24T05:59:12.455Z,99360.84
2023-02-24T06:01:45.595Z,99356.13
2023-02-24T06:04:21.060Z,99350.72
2023-02-24T06:06:55.004Z,99363.13
2023-02-24T06:09:23.385Z,99364.84
2023-02-24T06:11:50.931Z,99362.19
2023-02-24T06:14:18.416Z,99364.66
2023-02-24T06:16:45.955Z,99368.37
2023-02-24T06:19:13.706Z,99365.91
2023-02-24T06:21:41.949Z,99366.31
2023-02-24T06:24:18.564Z,99362.94
2023-02-24T06:26:46.560Z,99365.28
2023-02-24T06:29:15.038Z,99366.31
2023-02-24T06:31:43.126Z,99366.88
2023-02-24T06:34:10.875Z,99368.41
2023-02-24T06:36:38.374Z,99362.47
2023-02-24T06:39:08.176Z,99362.25
2023-02-24T06:41:35.699Z,99356.88
2023-02-24T06:44:03.268Z,99358.50
2023-02-24T06:46:31.179Z,99367.13
2023-02-24T06:48:58.356Z,99357.03
2023-02-24T06:51:30.165Z,99356.50
2023-02-24T06:53:59.805Z,99359.41
2023-02-24T06:56:27.433Z,99349.72
2023-02-24T06:58:56.356Z,99346.22
2023-02-24T07:01:25.793Z,99347.28
2023-02-24T07:04:02.584Z,99342.53
2023-02-24T07:06:31.515Z,99342.00
2023-02-24T07:08:59.140Z,99344.84
2023-02-24T07:11:28.216Z,99350.31
2023-02-24T07:13:57.526Z,99338.63
2023-02-24T07:16:25.780Z,99331.75
2023-02-24T07:18:53.742Z,99339.94
2023-02-24T07:21:23.554Z,99332.31
2023-02-24T07:23:58.901Z,99329.19
2023-02-24T07:26:27.826Z,99329.06
2023-02-24T07:28:55.432Z,99325.03
2023-02-24T07:31:24.465Z,99313.72
2023-02-24T07:33:56.784Z,99309.38
2023-02-24T07:36:24.454Z,99329.78
2023-02-24T07:38:52.438Z,99312.66
2023-02-24T07:41:22.685Z,99311.50
2023-02-24T07:43:53.590Z,99308.97
2023-02-24T07:46:25.028Z,99319.09
2023-02-24T07:48:52.738Z,99305.06
2023-02-24T07:51:22.053Z,99314.00
2023-02-24T07:53:53.043Z,99298.91
2023-02-24T07:56:26.901Z,99305.56
2023-02-24T07:58:59.264Z,99306.19
2023-02-24T08:01:28.237Z,99301.09
2023-02-24T08:03:57.394Z,99297.13
2023-02-24T08:06:27.513Z,99294.53
2023-02-24T08:08:58.411Z,99293.66
2023-02-24T08:11:35.543Z,99292.13
2023-02-24T08:14:03.346Z,99281.69
2023-02-24T08:16:39.507Z,99288.72
2023-02-24T08:19:07.388Z,99295.88
2023-02-24T08:21:38.314Z,99294.38
2023-02-24T08:24:06.016Z,99289.81
2023-02-24T08:26:37.308Z,99289.41
2023-02-24T08:29:07.449Z,99295.31
2023-02-24T08:31:35.041Z,99291.87
2023-02-24T08:34:02.287Z,99289.84
2023-02-24T08:36:29.759Z,99284.31
2023-02-24T08:38:59.765Z,99276.94
2023-02-24T08:41:44.861Z,99267.91
2023-02-24T08:44:12.811Z,99259.81
2023-02-24T08:46:40.308Z,99267.91
2023-02-24T08:49:10.959Z,99263.69
2023-02-24T08:51:43.756Z,99266.97
2023-02-24T08:54:15.531Z,99266.44
2023-02-24T08:56:55.986Z,99265.03
2023-02-24T08:59:49.697Z,99262.66
2023-02-24T09:02:18.638Z,99266.00
2023-02-24T09:04:46.741Z,99262.94
2023-02-24T09:07:21.624Z,99255.84
2023-02-24T09:09:49.322Z,99260.41
2023-02-24T09:12:24.544Z,99256.16
2023-02-24T09:14:55.551Z,99246.97
2023-02-24T09:17:40.222Z,99235.69
2023-02-24T09:20:27.191Z,99232.06
2023-02-24T09:23:00.662Z,99229.66
2023-02-24T09:25:47.130Z,99224.78
2023-02-24T09:28:18.848Z,99227.50
2023-02-24T09:30:56.411Z,99226.38
2023-02-24T09:33:26.877Z,99220.59
2023-02-24T09:36:20.222Z,99220.47
2023-02-24T09:39:00.748Z,99218.41
2023-02-24T09:41:32.248Z,99218.66
2023-02-24T09:44:07.476Z,99218.50
2023-02-24T09:46:42.813Z,99215.69
2023-02-24T09:49:17.248Z,99212.06
2023-02-24T09:51:45.045Z,99205.44
2023-02-24T09:54:19.132Z,99208.66
2023-02-24T09:57:08.344Z,99206.84
2023-02-24T09:59:35.870Z,99207.44
2023-02-24T10:02:12.163Z,99211.41
2023-02-24T10:04:49.579Z,99206.53
2023-02-24T10:07:18.516Z,99201.66
2023-02-24T10:10:11.179Z,99191.34
2023-02-24T10:12:40.359Z,99188.03
2023-02-24T10:15:19.034Z,99188.28
2023-02-24T10:17:49.459Z,99183.16
2023-02-24T10:20:31.184Z,99176.22
2023-02-24T10:23:05.663Z,99172.38
2023-02-24T10:25:54.020Z,99168.53
2023-02-24T10:28:35.920Z,99157.13
2023-02-24T10:31:27.656Z,99155.06
2023-02-24T10:34:06.456Z,99153.09
2023-02-24T10:36:35.649Z,99153.47
2023-02-24T10:39:25.817Z,99146.19
2023-02-24T10:42:16.415Z,99147.91
2023-02-24T10:45:01.290Z,99137.78
2023-02-24T10:47:32.833Z,99128.28
2023-02-24T10:50:01.267Z,99123.13
2023-02-24T10:52:50.541Z,99119.31
2023-02-24T10:55:45.481Z,99102.31
2023-02-24T10:58:38.178Z,99115.06
2023-02-24T11:01:18.183Z,99103.75
2023-02-24T11:04:12.508Z,99085.19
2023-02-24T11:06:39.939Z,99089.81
2023-02-24T11:09:31.898Z,99074.69
2023-02-24T11:12:25.311Z,99073.00
2023-02-24T11:15:17.820Z,99076.91
2023-02-24T11:17:57.535Z,99070.78
2023-02-24T11:20:49.799Z,99057.16
2023-02-24T11:23:25.224Z,99058.34
2023-02-24T11:25:58.272Z,99057.63
2023-02-24T11:28:56.076Z,99049.63
2023-02-24T11:31:39.860Z,99043.66
2023-02-24T11:34:12.817Z,99046.13
2023-02-24T11:36:44.868Z,99039.47
2023-02-24T11:39:21.228Z,99032.78
2023-02-24T11:41:53.241Z,99031.66
2023-02-24T11:44:23.332Z,99024.75
2023-02-24T11:46:57.193Z,99028.25
2023-02-24T11:49:53.358Z,99026.88
2023-02-24T11:52:28.377Z,99011.31
2023-02-24T11:54:57.084Z,99011.22
2023-02-24T11:57:34.402Z,99000.09
2023-02-24T12:00:05.046Z,99009.34
2023-02-24T12:02:39.898Z,98997.81
2023-02-24T12:05:13.721Z,99000.19
2023-02-24T12:07:44.794Z,98989.41
2023-02-24T12:10:22.134Z,98977.00
2023-02-24T12:13:11.794Z,98977.06
2023-02-24T12:15:54.747Z,98976.00
2023-02-24T12:18:27.710Z,98968.16
2023-02-24T12:21:21.315Z,98962.88
2023-02-24T12:23:51.263Z,98964.22
2023-02-24T12:26:27.341Z,98955.97
2023-02-24T12:29:03.753Z,98955.09
2023-02-24T12:31:57.237Z,98951.63
2023-02-24T12:34:43.505Z,98952.59
2023-02-24T12:37:32.264Z,98947.84
2023-02-24T12:40:14.693Z,98948.72
2023-02-24T12:42:42.514Z,98940.25
2023-02-24T12:45:16.013Z,98939.34
2023-02-24T12:47:53.257Z,98928.97
2023-02-24T12:50:26.281Z,98944.47
2023-02-24T12:52:56.636Z,98931.91
2023-02-24T12:55:27.634Z,98933.94
2023-02-24T12:57:57.872Z,98929.97
2023-02-24T13:00:33.942Z,98931.75
2023-02-24T13:03:06.781Z,98917.25
2023-02-24T13:05:36.969Z,98915.50
2023-02-24T13:08:07.287Z,98916.31
2023-02-24T13:10:34.460Z,98913.06
2023-02-24T13:13:04.830Z,98909.47
2023-02-24T13:15:34.851Z,98913.81
2023-02-24T13:18:02.089Z,98900.62
2023-02-24T13:20:33.821Z,98901.47
2023-02-24T13:23:01.873Z,98895.31
2023-02-24T13:25:37.089Z,98899.31
2023-02-24T13:28:06.232Z,98882.19
2023-02-24T13:30:42.874Z,98884.62
2023-02-24T13:33:19.457Z,98884.09
2023-02-24T13:35:47.661Z,98884.91
2023-02-24T13:38:24.406Z,98884.19
2023-02-24T13:40:51.647Z,98875.91
2023-02-24T13:43:27.141Z,98873.81
2023-02-24T13:46:01.132Z,98862.72
2023-02-24T13:48:42.479Z,98860.47
2023-02-24T13:51:19.194Z,98860.72
2023-02-24T13:53:52.027Z,98858.06
2023-02-24T13:56:28.470Z,98856.34
2023-02-24T13:58:55.933Z,98856.69
2023-02-24T14:01:23.662Z,98849.31
2023-02-24T14:04:03.185Z,98841.28
2023-02-24T14:06:32.779Z,98837.69
2023-02-24T14:09:02.606Z,98837.75
2023-02-24T14:11:31.262Z,98830.62
2023-02-24T14:13:58.472Z,98836.00
2023-02-24T14:16:29.935Z,98833.06
2023-02-24T14:18:59.285Z,98825.81
2023-02-24T14:21:27.596Z,98824.56
2023-02-24T14:24:02.092Z,98820.56
2023-02-24T14:26:30.590Z,98814.78
2023-02-24T14:29:00.555Z,98818.94
2023-02-24T14:31:28.408Z,98811.47
2023-02-24T14:33:58.177Z,98803.53
2023-02-24T14:36:26.690Z,98804.78
2023-02-24T14:39:14.113Z,98799.59
2023-02-24T14:41:42.336Z,98795.63
2023-02-24T14:44:28.737Z,98794.66
2023-02-24T14:46:59.985Z,98787.59
2023-02-24T14:49:28.583Z,98787.91
2023-02-24T14:52:07.143Z,98784.31
2023-02-24T14:54:34.534Z,98777.22
2023-02-24T14:57:02.148Z,98774.59
2023-02-24T14:59:34.449Z,98776.47
2023-02-24T15:02:02.891Z,98767.50
2023-02-24T15:04:42.445Z,98768.50
2023-02-24T15:07:17.570Z,98768.97
2023-02-24T15:09:47.022Z,98761.72
2023-02-24T15:12:24.375Z,98763.66
2023-02-24T15:14:54.025Z,98756.47
2023-02-24T15:17:21.794Z,98755.38
2023-02-24T15:19:54.474Z,98749.22
2023-02-24T15:22:24.036Z,98757.22
2023-02-24T15:25:11.988Z,98761.78
2023-02-24T15:27:49.259Z,98758.34
2023-02-24T15:30:25.472Z,98748.44
2023-02-24T15:32:59.974Z,98745.09
2023-02-24T15:35:27.303Z,98742.72
2023-02-24T15:37:55.070Z,98739.94
2023-02-24T15:40:24.071Z,98738.50
2023-02-24T15:42:52.733Z,98732.62
2023-02-24T15:45:25.643Z,98732.72
2023-02-24T15:47:54.549Z,98734.72
2023-02-24T15:50:22.639Z,98730.41
2023-02-24T15:52:50.533Z,98730.22
2023-02-24T15:55:18.890Z,98717.00
2023-02-24T15:57:47.431Z,98722.13
2023-02-24T16:00:15.974Z,98712.41
2023-02-24T16:02:43.793Z,98725.16
2023-02-24T16:05:14.757Z,98719.50
2023-02-24T16:07:43.814Z,98714.59
2023-02-24T16:10:15.213Z,98711.22
2023-02-24T16:13:09.094Z,98721.31
2023-02-24T16:15:42.876Z,98713.59
2023-02-24T16:18:20.948Z,98704.72
2023-02-24T16:20:56.748Z,98706.63
2023-02-24T16:23:27.682Z,98696.78
2023-02-24T16:25:57.067Z,98701.19
2023-02-24T16:28:25.097Z,98695.41
2023-02-24T16:30:53.313Z,98692.75
2023-02-24T16:33:23.555Z,98698.78
2023-02-24T16:35:53.642Z,98682.44
2023-02-24T16:38:26.752Z,98681.72
2023-02-24T16:40:55.067Z,98676.03
2023-02-24T16:43:23.140Z,98674.63
2023-02-24T16:45:51.306Z,98665.56
2023-02-24T16:48:20.021Z,98674.59
2023-02-24T16:50:47.922Z,98669.50
2023-02-24T16:53:19.475Z,98674.03
2023-02-24T16:55:47.665Z,98674.78
2023-02-24T16:58:16.051Z,98660.34
2023-02-24T17:00:43.946Z,98664.09
2023-02-24T17:03:22.051Z,98657.41
2023-02-24T17:05:50.295Z,98658.56
2023-02-24T17:08:19.478Z,98655.25
2023-02-24T17:10:46.902Z,98657.13
2023-02-24T17:13:16.181Z,98645.69
2023-02-24T17:15:44.113Z,98653.50
2023-02-24T17:18:12.083Z,98644.94
2023-02-24T17:20:41.289Z,98642.09
2023-02-24T17:23:09.762Z,98645.28
2023-02-24T17:25:37.441Z,98637.91
2023-02-24T17:28:07.330Z,98647.53
2023-02-24T17:30:36.567Z,98641.50
2023-02-24T17:33:04.270Z,98639.66
2023-02-24T17:35:32.037Z,98641.38
2023-02-24T17:38:00.386Z,98635.38
2023-02-24T17:40:27.671Z,98644.87
2023-02-24T17:42:56.051Z,98643.03
2023-02-24T17:45:23.604Z,98642.91
2023-02-24T17:47:52.754Z,98637.06
2023-02-24T17:50:20.860Z,98637.13
2023-02-24T17:52:50.014Z,98636.75
2023-02-24T17:55:17.976Z,98643.91
2023-02-24T17:57:47.893Z,98633.38
2023-02-24T18:00:16.889Z,98632.31
2023-02-24T18:02:46.146Z,98623.28
2023-02-24T18:05:14.495Z,98616.84
2023-02-24T18:07:42.321Z,98615.13
2023-02-24T18:10:11.241Z,98607.06
2023-02-24T18:12:39.086Z,98610.34
2023-02-24T18:15:10.491Z,98599.53
2023-02-24T18:17:38.834Z,98590.91
2023-02-24T18:20:07.798Z,98590.91
2023-02-24T18:22:37.342Z,98587.44
2023-02-24T18:25:06.658Z,98590.00
2023-02-24T18:27:34.971Z,98592.63
2023-02-24T18:30:03.215Z,98580.38
2023-02-24T18:32:34.529Z,98590.53
2023-02-24T18:35:02.633Z,98594.03
2023-02-24T18:37:31.634Z,98589.75
2023-02-24T18:40:02.147Z,98590.78
2023-02-24T18:42:30.000Z,98588.88
2023-02-24T18:44:58.482Z,98586.97
2023-02-24T18:47:26.682Z,98585.84
2023-02-24T18:49:55.214Z,98592.78
2023-02-24T18:52:24.777Z,98585.69
2023-02-24T18:54:53.584Z,98579.69
2023-02-24T18:57:22.225Z,98574.94
2023-02-24T18:59:50.715Z,98578.28
2023-02-24T19:02:18.896Z,98569.94
2023-02-24T19:04:47.127Z,98567.81
2023-02-24T19:07:14.836Z,98564.47
2023-02-24T19:09:43.899Z,98570.38
2023-02-24T19:12:12.611Z,98561.69
2023-02-24T19:14:41.036Z,98557.72
2023-02-24T19:17:09.409Z,98561.41
2023-02-24T19:19:37.426Z,98554.56
2023-02-24T19:22:05.922Z,98545.25
2023-02-24T19:24:34.714Z,98556.94
2023-02-24T19:27:03.045Z,98545.47
2023-02-24T19:29:31.557Z,98551.44
2023-02-24T19:32:00.645Z,98546.22
2023-02-24T19:34:28.883Z,98538.13
2023-02-24T19:37:01.229Z,98531.75
2023-02-24T19:39:30.805Z,98531.72
2023-02-24T19:41:58.976Z,98533.91
2023-02-24T19:44:26.913Z,98521.19
2023-02-24T19:46:57.107Z,98518.97
2023-02-24T19:49:25.792Z,98521.50
2023-02-24T19:51:55.102Z,98529.87
2023-02-24T19:54:23.889Z,98541.91
2023-02-24T19:56:52.611Z,98530.31
2023-02-24T19:59:21.982Z,98531.72
2023-02-24T20:01:52.166Z,98525.44
2023-02-24T20:04:21.510Z,98513.88
2023-02-24T20:06:51.623Z,98515.37
2023-02-24T20:09:23.569Z,98508.91
2023-02-24T20:11:54.381Z,98509.53
2023-02-24T20:14:22.798Z,98510.91
2023-02-24T20:16:52.664Z,98506.78
2023-02-24T20:19:21.094Z,98509.63
2023-02-24T20:21:49.038Z,98509.44
2023-02-24T20:24:20.915Z,98501.94
2023-02-24T20:26:50.473Z,98503.78
2023-02-24T20:29:21.462Z,98501.78
2023-02-24T20:31:50.148Z,98490.91
2023-02-24T20:34:19.571Z,98497.66
2023-02-24T20:36:47.811Z,98490.38
2023-02-24T20:39:15.971Z,98480.62
2023-02-24T20:41:45.447Z,98484.87
2023-02-24T20:44:14.402Z,98481.19
2023-02-24T20:46:42.915Z,98476.81
2023-02-24T20:49:13.135Z,98480.88
2023-02-24T20:51:41.743Z,98484.25
2023-02-24T20:54:13.304Z,98476.09
2023-02-24T20:56:43.625Z,98473.47
2023-02-24T20:59:13.463Z,98474.25
2023-02-24T21:01:42.145Z,98466.44
2023-02-24T21:04:12.047Z,98466.56
2023-02-24T21:06:40.016Z,98454.22
2023-02-24T21:09:09.826Z,98453.94
2023-02-24T21:11:37.722Z,98451.13
2023-02-24T21:14:06.336Z,98449.03
2023-02-24T21:16:37.406Z,98451.56
2023-02-24T21:19:05.024Z,98442.16
2023-02-24T21:21:32.757Z,98440.53
2023-02-24T21:24:00.792Z,98437.38
2023-02-24T21:26:29.843Z,98442.56
2023-02-24T21:28:58.694Z,98433.56
2023-02-24T21:31:27.455Z,98426.81
2023-02-24T21:33:55.582Z,98420.12
2023-02-24T21:36:26.707Z,98424.28
2023-02-24T21:38:54.927Z,98413.97
2023-02-24T21:41:23.914Z,98403.56
2023-02-24T21:43:52.617Z,98405.09
2023-02-24T21:46:20.362Z,98401.63
2023-02-24T21:48:48.162Z,98398.25
2023-02-24T21:51:15.398Z,98404.41
2023-02-24T21:53:44.499Z,98400.06
2023-02-24T21:56:18.660Z,98406.16
2023-02-24T21:58:59.330Z,98424.78
2023-02-24T22:01:33.537Z,98413.06
2023-02-24T22:04:02.771Z,98404.34
2023-02-24T22:06:31.721Z,98400.91
2023-02-24T22:08:59.725Z,98411.25
2023-02-24T22:11:27.304Z,98406.97
2023-02-24T22:13:54.467Z,98418.09
2023-02-24T22:16:22.584Z,98401.94
2023-02-24T22:18:50.841Z,98404.00
2023-02-24T22:21:19.062Z,98394.25
2023-02-24T22:23:46.923Z,98394.63
2023-02-24T22:26:14.778Z,98391.88
2023-02-24T22:28:42.677Z,98375.63
2023-02-24T22:31:10.543Z,98375.59
2023-02-24T22:33:40.944Z,98371.25
2023-02-24T22:36:18.554Z,98374.75
2023-02-24T22:38:46.101Z,98368.56
2023-02-24T22:41:15.112Z,98364.25
2023-02-24T22:43:42.513Z,98362.63
2023-02-24T22:46:14.151Z,98370.25
2023-02-24T22:48:41.442Z,98364.19
2023-02-24T22:51:09.470Z,98360.69
2023-02-24T22:53:37.817Z,98348.50
2023-02-24T22:56:05.557Z,98339.87
2023-02-24T22:58:32.834Z,98331.28
2023-02-24T23:01:00.345Z,98324.28
2023-02-24T23:03:30.729Z,98318.13
2023-02-24T23:05:59.335Z,98325.91
2023-02-24T23:08:27.722Z,98326.44
2023-02-24T23:10:56.521Z,98324.87
2023-02-24T23:13:23.768Z,98321.00
2023-02-24T23:15:51.303Z,98315.31
2023-02-24T23:18:18.532Z,98312.03
2023-02-24T23:20:45.714Z,98306.06
2023-02-24T23:23:13.185Z,98307.72
2023-02-24T23:25:42.125Z,98304.16
2023-02-24T23:28:09.555Z,98299.78
2023-02-24T23:30:40.329Z,98300.63
2023-02-24T23:33:08.612Z,98292.81
2023-02-24T23:35:35.840Z,98303.81
2023-02-24T23:38:03.341Z,98297.19
2023-02-24T23:40:44.363Z,98301.37
2023-02-24T23:43:16.921Z,98287.72
2023-02-24T23:45:44.436Z,98287.75
2023-02-24T23:48:12.287Z,98276.28
2023-02-24T23:50:40.598Z,98272.38
2023-02-24T23:53:07.933Z,98265.13
2023-02-24T23:55:35.704Z,98261.88
2023-02-24T23:58:03.465Z,98268.91
